Time;durP1;ratioP1;P1;durP2;ratioP2;P2;SDS_P1;SDS_P2;PMS_P1;PMS_P2;Temp;Humidity;BMP_temperature;BMP_pressure;BME280_temperature;BME280_humidity;BME280_pressure;Samples;Min_cycle;Max_cycle;Signal;HPM_P1;HPM_P2
2023/01/01 00:01:13;;;;;;;16.77;7.68;;;;;;;15.07;67.26;68440.56;4983158;28;20061;-82
2023/01/01 00:03:39;;;;;;;13.15;5.80;;;;;;;15.08;66.14;68444.41;4977596;28;20043;-82
2023/01/01 00:06:09;;;;;;;10.45;4.50;;;;;;;15.11;65.49;68444.59;4982776;28;20778;-83
2023/01/01 00:08:35;;;;;;;12.02;3.72;;;;;;;15.13;65.93;68446.84;4978483;28;20046;-83
2023/01/01 00:11:02;;;;;;;8.60;3.90;;;;;;;15.16;66.22;68452.38;4983394;28;20051;-82
2023/01/01 00:13:27;;;;;;;11.38;4.88;;;;;;;15.10;67.46;68446.69;4980540;28;20096;-82
2023/01/01 00:15:53;;;;;;;8.82;4.55;;;;;;;;;;4979395;28;20052;-82
2023/01/01 00:18:18;;;;;;;12.48;3.50;;;;;;;15.14;66.46;68450.13;4989580;28;20037;-82
2023/01/01 00:20:43;;;;;;;11.38;3.65;;;;;;;15.14;66.03;68450.13;4987034;28;20113;-82
2023/01/01 00:23:09;;;;;;;11.32;4.18;;;;;;;15.15;65.86;68448.56;4983686;28;20065;-82
2023/01/01 00:25:34;;;;;;;9.38;3.92;;;;;;;15.19;64.71;68455.78;4990637;28;20108;-82
2023/01/01 00:28:00;;;;;;;10.32;3.83;;;;;;;15.16;67.01;68452.38;4981676;28;20050;-82
2023/01/01 00:30:26;;;;;;;8.25;4.00;;;;;;;15.16;64.76;68447.56;4985756;28;20122;-82
2023/01/01 00:32:51;;;;;;;10.75;4.35;;;;;;;15.18;65.12;68452.53;4985999;28;20804;-82
2023/01/01 00:35:17;;;;;;;8.20;3.08;;;;;;;;;;4985271;28;20034;-82
2023/01/01 00:37:42;;;;;;;7.78;3.03;;;;;;;15.11;67.59;68447.81;4991200;28;20038;-83
2023/01/01 00:40:08;;;;;;;9.55;3.75;;;;;;;15.11;66.75;68444.59;4990625;28;20503;-83
2023/01/01 00:42:33;;;;;;;8.55;3.92;;;;;;;15.10;66.93;68441.34;4990125;28;20089;-82
2023/01/01 00:44:59;;;;;;;11.07;3.20;;;;;;;15.11;65.89;68442.47;4989278;28;20043;-83
2023/01/01 00:47:24;;;;;;;10.00;3.55;;;;;;;15.16;64.84;68450.25;4989104;28;20046;-82
2023/01/01 00:49:49;;;;;;;13.00;4.30;;;;;;;15.16;66.16;68452.38;4987420;28;20056;-83
2023/01/01 00:52:15;;;;;;;8.80;3.65;;;;;;;15.12;66.61;68440.91;4995679;28;20156;-82
2023/01/01 00:54:40;;;;;;;8.15;3.35;;;;;;;15.12;65.11;68448.97;4992268;28;20505;-81
2023/01/01 00:57:05;;;;;;;12.75;6.20;;;;;;;15.11;66.97;68445.16;4995598;28;20057;-81
2023/01/01 00:59:31;;;;;;;7.57;3.60;;;;;;;15.06;67.09;68439.44;4998165;28;20043;-81
2023/01/01 01:01:56;;;;;;;11.93;4.30;;;;;;;15.09;66.52;68444.97;4996270;28;20106;-81
2023/01/01 01:04:21;;;;;;;10.35;4.38;;;;;;;15.08;65.78;68441.72;5004885;28;20042;-82
2023/01/01 01:06:47;;;;;;;7.20;3.42;;;;;;;15.04;65.81;68433.91;4996846;28;20062;-82
2023/01/01 01:09:13;;;;;;;11.65;3.97;;;;;;;15.04;65.44;68439.84;4997023;28;20062;-82
2023/01/01 01:11:38;;;;;;;11.50;4.30;;;;;;;15.07;66.41;68440.56;4985613;28;20456;-81
2023/01/01 01:14:03;;;;;;;10.93;5.22;;;;;;;15.01;66.38;68433.75;4979402;28;20076;-82
2023/01/01 01:16:31;;;;;;;8.48;3.17;;;;;;;15.02;65.74;68437.59;4984947;28;20070;-82
2023/01/01 01:18:59;;;;;;;9.65;4.07;;;;;;;15.02;65.21;68434.34;4982329;28;20090;-81
2023/01/01 01:21:26;;;;;;;9.60;3.70;;;;;;;15.04;65.83;68436.59;4985235;28;20066;-82
2023/01/01 01:23:53;;;;;;;10.93;3.53;;;;;;;15.02;65.73;68437.59;4971576;28;20494;-82
2023/01/01 01:26:23;;;;;;;10.10;3.03;;;;;;;15.00;65.01;68432.63;4928378;28;20051;-82
2023/01/01 01:28:49;;;;;;;9.38;2.95;;;;;;;15.01;65.15;68436.44;4931910;28;20039;-82
2023/01/01 01:31:14;;;;;;;11.68;3.28;;;;;;;15.00;66.66;68435.31;4941837;28;20039;-82
2023/01/01 01:33:42;;;;;;;7.68;3.40;;;;;;;14.97;66.00;68428.63;4940266;28;20043;-81
2023/01/01 01:36:09;;;;;;;9.25;3.65;;;;;;;14.93;66.16;68421.97;4938344;28;20063;-81
2023/01/01 01:38:34;;;;;;;9.85;3.67;;;;;;;14.91;66.80;68419.13;4936865;28;20083;-82
2023/01/01 01:41:00;;;;;;;8.55;3.30;;;;;;;14.91;65.34;68422.38;4936811;28;20046;-82
2023/01/01 01:43:50;;;;;;;11.40;3.42;;;;;;;14.89;64.77;68420.66;4920219;29;20040;-82
2023/01/01 01:46:22;;;;;;;9.40;3.80;;;;;;;14.88;65.60;68418.97;4928497;28;20050;-81
2023/01/01 01:48:49;;;;;;;7.50;2.70;;;;;;;14.83;64.93;68413.81;4938476;28;20062;-83
2023/01/01 01:51:19;;;;;;;10.55;3.42;;;;;;;14.83;65.14;68413.81;4970641;28;20097;-82
2023/01/01 01:53:47;;;;;;;;;;;;;;;14.84;65.52;68412.28;4979100;28;20067;-82
2023/01/01 01:56:13;;;;;;;11.57;4.18;;;;;;;;;;4977654;28;19925;-81
2023/01/01 01:58:39;;;;;;;8.57;4.00;;;;;;;14.76;65.48;68408.53;4979435;28;20045;-82
2023/01/01 02:01:04;;;;;;;7.47;3.83;;;;;;;14.80;66.42;68410.41;4979322;28;20096;-82
2023/01/01 02:03:53;;;;;;;11.57;3.33;;;;;;;14.75;64.32;68404.16;4984451;28;20034;-82
2023/01/01 02:06:19;;;;;;;9.15;3.63;;;;;;;14.77;65.43;68406.44;4989806;28;20051;-81
2023/01/01 02:08:47;;;;;;;11.30;3.20;;;;;;;14.75;63.73;68406.81;4969977;28;20046;-82
2023/01/01 02:11:13;;;;;;;7.13;2.50;;;;;;;14.78;62.90;68410.25;4973193;28;20042;-82
2023/01/01 02:13:38;;;;;;;10.63;2.92;;;;;;;14.78;62.97;68410.25;4962340;28;20519;-83
2023/01/01 02:16:13;;;;;;;8.52;2.97;;;;;;;14.77;62.88;68409.13;4964210;28;20256;-83
2023/01/01 02:19:17;;;;;;;10.93;3.13;;;;;;;14.78;62.40;68405.44;4970751;28;20109;-83
2023/01/01 02:21:55;;;;;;;11.35;3.05;;;;;;;14.80;61.69;68407.16;4988468;28;20112;-81
2023/01/01 02:24:31;;;;;;;8.00;2.70;;;;;;;14.82;60.43;68414.81;4991446;28;20066;-83
2023/01/01 02:27:03;;;;;;;13.18;2.50;;;;;;;14.82;61.73;68414.81;4999581;28;20053;-82
2023/01/01 02:29:55;;;;;;;6.25;2.45;;;;;;;14.81;62.43;68413.66;4999017;28;20054;-81
2023/01/01 02:32:30;;;;;;;7.07;2.58;;;;;;;14.77;61.78;68403.75;4978297;28;20046;-82
2023/01/01 02:35:33;;;;;;;5.00;2.00;;;;;;;14.74;61.66;68406.25;4986195;28;20069;-81
2023/01/01 02:38:07;;;;;;;6.63;2.10;;;;;;;14.73;61.96;68405.13;4983351;28;20052;-81
2023/01/01 02:40:38;;;;;;;7.30;2.50;;;;;;;14.72;62.17;68403.41;4985612;28;20050;-82
2023/01/01 02:43:07;;;;;;;4.93;2.42;;;;;;;14.69;61.61;68397.31;4990530;28;20100;-83
2023/01/01 02:45:32;;;;;;;8.10;2.47;;;;;;;14.69;62.46;68397.31;4987201;28;20050;-82
2023/01/01 02:48:06;;;;;;;6.50;2.22;;;;;;;14.67;61.66;68398.28;4980945;28;20430;-82
2023/01/01 02:50:32;;;;;;;6.70;2.28;;;;;;;14.66;61.20;68397.72;4991443;28;20514;-83
2023/01/01 02:53:16;;;;;;;6.47;2.85;;;;;;;14.65;62.06;68388.56;4982776;28;20143;-83
2023/01/01 02:56:03;;;;;;;11.05;2.30;;;;;;;14.62;61.57;68390.50;4984216;28;20054;-83
2023/01/01 03:02:03;;;;;;;6.35;1.95;;;;;;;14.50;63.86;68379.50;4970425;28;20458;-82
2023/01/01 03:04:59;;;;;;;8.73;2.00;;;;;;;14.47;64.55;68372.81;4942155;28;20544;-82
2023/01/01 03:07:34;;;;;;;8.07;2.75;;;;;;;14.45;63.72;68373.81;5006079;28;20069;-83
2023/01/01 03:10:17;;;;;;;8.23;2.40;;;;;;;14.40;63.75;68368.09;5000563;28;20080;-82
2023/01/01 03:12:48;;;;;;;4.68;1.65;;;;;;;;;;4995970;28;20062;-83
2023/01/01 03:15:22;;;;;;;7.90;2.58;;;;;;;14.40;64.63;68368.09;4999654;28;20049;-82
2023/01/01 03:18:07;;;;;;;5.90;2.33;;;;;;;14.34;64.24;68358.59;4999780;28;20108;-83
2023/01/01 03:20:38;;;;;;;7.63;1.60;;;;;;;14.32;64.77;68359.00;5006540;28;20041;-82
2023/01/01 03:23:09;;;;;;;6.30;2.03;;;;;;;14.30;64.88;68356.72;4995891;28;20042;-82
2023/01/01 03:25:44;;;;;;;6.65;2.20;;;;;;;14.29;65.43;68355.59;4970296;28;20570;-82
2023/01/01 03:28:13;;;;;;;8.82;3.15;;;;;;;14.26;64.96;68352.16;4937218;28;20048;-82
2023/01/01 03:30:41;;;;;;;5.10;2.22;;;;;;;14.24;65.65;68347.78;4920990;28;20127;-82
2023/01/01 03:33:32;;;;;;;5.53;2.00;;;;;;;14.25;66.32;68348.94;4948549;28;20047;-82
2023/01/01 03:36:02;;;;;;;8.90;2.55;;;;;;;14.21;65.53;68347.63;4940734;28;20048;-83
2023/01/01 03:38:38;;;;;;;5.90;2.10;;;;;;;14.19;65.61;68345.34;4948381;28;20587;-83
2023/01/01 03:41:11;;;;;;;10.68;2.10;;;;;;;14.17;66.61;68343.06;4938408;28;20130;-83
2023/01/01 03:43:45;;;;;;;5.85;2.00;;;;;;;14.17;65.47;68342.50;4945052;28;20043;-83
2023/01/01 03:46:13;;;;;;;5.97;2.03;;;;;;;14.15;66.26;68338.09;4966507;28;20078;-83
2023/01/01 03:48:59;;;;;;;7.43;2.58;;;;;;;14.16;65.64;68341.38;4939789;28;20065;-83
2023/01/01 03:51:43;;;;;;;5.75;1.80;;;;;;;14.17;64.74;68342.50;4970653;28;20411;-82
2023/01/01 03:54:23;;;;;;;4.18;1.83;;;;;;;14.15;64.37;68340.78;4946201;28;20582;-83
2023/01/01 03:57:09;;;;;;;8.25;2.55;;;;;;;14.12;66.23;68337.38;4941899;28;20190;-82
2023/01/01 03:59:39;;;;;;;5.20;2.10;;;;;;;14.11;65.36;68330.88;4980526;28;20034;-82
2023/01/01 04:02:09;;;;;;;6.35;2.08;;;;;;;14.13;64.74;68337.94;4985155;28;20522;-82
2023/01/01 04:04:35;;;;;;;9.68;2.28;;;;;;;14.14;65.01;68336.41;4993757;28;20413;-81
2023/01/01 04:07:00;;;;;;;6.25;1.90;;;;;;;;;;4980720;28;20054;-82
2023/01/01 04:09:30;;;;;;;6.88;1.88;;;;;;;14.13;65.69;68337.94;4985959;28;20046;-82
2023/01/01 04:12:00;;;;;;;8.27;2.10;;;;;;;14.13;63.92;68335.28;4975893;28;20053;-83
2023/01/01 04:14:28;;;;;;;5.70;1.58;;;;;;;14.11;66.54;68335.66;4985988;28;20134;-82
2023/01/01 04:16:55;;;;;;;9.10;1.70;;;;;;;14.09;65.35;68331.28;4983097;28;20054;-82
2023/01/01 04:19:20;;;;;;;6.18;1.80;;;;;;;14.09;65.59;68328.03;4982999;28;20057;-82
2023/01/01 04:21:45;;;;;;;7.18;1.60;;;;;;;14.08;65.45;68329.59;4987065;28;20050;-83
2023/01/01 04:24:11;;;;;;;5.47;2.05;;;;;;;14.09;65.85;68328.59;4975831;28;20140;-82
2023/01/01 04:26:36;;;;;;;5.70;1.98;;;;;;;14.08;66.70;68332.81;4983464;28;20058;-83
2023/01/01 04:29:01;;;;;;;6.78;2.17;;;;;;;14.06;66.42;68330.53;4985709;28;20523;-83
2023/01/01 04:31:27;;;;;;;7.10;2.00;;;;;;;14.09;66.24;68333.38;4987101;28;20482;-82
2023/01/01 04:33:53;;;;;;;8.73;2.20;;;;;;;14.07;66.74;68331.69;4985659;28;20057;-82
2023/01/01 04:36:18;;;;;;;5.20;2.08;;;;;;;14.05;66.79;68329.41;4982388;28;20094;-82
2023/01/01 04:38:44;;;;;;;3.53;1.70;;;;;;;14.07;66.51;68337.03;4983149;28;20043;-82
2023/01/01 04:41:09;;;;;;;9.07;1.98;;;;;;;14.07;68.00;68331.09;4988349;28;20039;-82
2023/01/01 04:43:34;;;;;;;5.43;1.65;;;;;;;14.05;66.91;68329.41;4981091;28;20048;-82
2023/01/01 04:46:01;;;;;;;6.90;2.00;;;;;;;;;;4985209;28;21027;-82
2023/01/01 04:48:29;;;;;;;6.75;1.92;;;;;;;14.06;67.11;68327.88;4972271;28;20412;-81
2023/01/01 04:51:03;;;;;;;5.55;1.30;;;;;;;14.06;67.06;68327.88;4982004;28;20073;-82
2023/01/01 04:53:30;;;;;;;6.55;2.00;;;;;;;14.04;68.34;68325.59;4982313;28;20055;-82
2023/01/01 04:56:09;;;;;;;6.38;1.63;;;;;;;14.02;68.16;68326.00;4983176;28;20130;-82
2023/01/01 04:58:37;;;;;;;4.95;1.80;;;;;;;14.00;69.29;68324.28;4985498;28;20054;-82
2023/01/01 05:01:02;;;;;;;5.88;1.50;;;;;;;13.98;68.93;68319.34;4985503;28;20106;-81
2023/01/01 05:03:28;;;;;;;7.25;1.67;;;;;;;14.02;67.85;68322.75;4988155;28;20204;-82
2023/01/01 05:06:00;;;;;;;5.35;1.83;;;;;;;14.03;68.96;68327.13;4983725;28;20051;-82
2023/01/01 05:08:28;;;;;;;5.50;1.25;;;;;;;14.03;68.57;68323.88;4988796;28;20089;-82
2023/01/01 05:11:05;;;;;;;6.25;1.65;;;;;;;14.01;69.75;68324.84;4975544;28;20057;-83
2023/01/01 05:13:31;;;;;;;5.18;1.50;;;;;;;14.00;69.44;68318.38;4985187;28;20069;-82
2023/01/01 05:15:56;;;;;;;5.97;1.55;;;;;;;13.96;70.15;68319.16;4981883;28;20066;-82
2023/01/01 05:18:22;;;;;;;5.45;1.30;;;;;;;13.97;69.52;68320.88;4979818;28;20811;-81
2023/01/01 05:20:47;;;;;;;5.65;1.58;;;;;;;13.96;70.56;68313.81;4982287;28;20065;-82
2023/01/01 05:23:15;;;;;;;5.13;1.38;;;;;;;13.95;70.42;68313.25;4980768;28;20046;-82
2023/01/01 05:25:41;;;;;;;5.47;1.83;;;;;;;13.97;70.14;68317.63;4978233;28;20046;-81
2023/01/01 05:28:06;;;;;;;6.95;1.88;;;;;;;13.99;70.67;68317.22;4982573;28;21043;-82
2023/01/01 05:30:32;;;;;;;4.50;1.35;;;;;;;13.97;69.10;68317.63;4988928;28;20046;-82
2023/01/01 05:32:57;;;;;;;6.63;1.65;;;;;;;13.96;70.27;68319.75;4982974;28;20042;-82
2023/01/01 05:35:22;;;;;;;8.60;2.00;;;;;;;13.97;70.91;68320.31;4986090;28;20042;-82
2023/01/01 05:37:48;;;;;;;6.40;1.90;;;;;;;13.97;70.43;68320.31;4983176;28;20507;-82
2023/01/01 05:40:13;;;;;;;6.80;1.70;;;;;;;13.96;70.72;68316.50;4978553;28;20398;-82
2023/01/01 05:42:38;;;;;;;7.75;2.35;;;;;;;13.96;71.84;68319.16;4980647;28;20474;-82
2023/01/01 05:45:04;;;;;;;5.88;1.80;;;;;;;;;;4988857;28;20070;-82
2023/01/01 05:47:29;;;;;;;6.90;1.67;;;;;;;13.95;72.18;68318.03;4979240;28;20106;-82
2023/01/01 05:49:55;;;;;;;6.20;1.90;;;;;;;13.92;72.40;68311.94;4989745;28;20046;-82
2023/01/01 05:52:20;;;;;;;10.50;1.90;;;;;;;13.90;72.21;68312.91;4985881;28;20039;-82
2023/01/01 05:54:45;;;;;;;4.65;1.70;;;;;;;13.87;72.34;68309.50;4988757;28;20105;-82
2023/01/01 05:57:10;;;;;;;4.35;1.92;;;;;;;13.84;72.35;68306.09;4981350;28;20466;-82
2023/01/01 05:59:36;;;;;;;4.40;1.50;;;;;;;13.85;72.42;68301.31;4984944;28;20534;-81
2023/01/01 06:02:01;;;;;;;5.95;1.65;;;;;;;13.85;74.47;68303.97;4989229;28;20088;-81
2023/01/01 06:04:27;;;;;;;5.68;1.90;;;;;;;13.83;73.83;68304.94;4997860;28;20038;-81
2023/01/01 06:06:52;;;;;;;4.72;1.50;;;;;;;13.83;73.42;68301.69;4998158;28;20069;-82
2023/01/01 06:09:17;;;;;;;5.85;1.77;;;;;;;13.80;74.28;68295.63;5002830;28;20057;-82
2023/01/01 06:11:43;;;;;;;6.13;1.70;;;;;;;13.77;74.48;68298.69;5002111;28;20038;-83
2023/01/01 06:14:08;;;;;;;10.05;1.88;;;;;;;13.77;74.62;68296.00;4997017;28;20462;-83
2023/01/01 06:16:33;;;;;;;5.80;1.63;;;;;;;13.76;75.46;68294.88;4994270;28;20046;-82
2023/01/01 06:18:59;;;;;;;3.63;1.80;;;;;;;13.75;75.53;68295.84;4991393;28;20518;-83
2023/01/01 06:21:26;;;;;;;5.97;1.73;;;;;;;13.72;75.57;68290.34;4990078;28;20066;-82
2023/01/01 06:23:57;;;;;;;7.72;2.05;;;;;;;13.71;76.39;68288.63;4991379;28;20045;-82
2023/01/01 06:26:25;;;;;;;6.63;1.60;;;;;;;13.68;76.33;68285.22;4989907;28;20097;-83
2023/01/01 06:28:50;;;;;;;6.63;1.98;;;;;;;13.69;76.11;68289.00;4986745;28;20089;-82
2023/01/01 06:31:17;;;;;;;6.38;1.52;;;;;;;13.66;76.61;68286.16;4991559;28;20049;-82
2023/01/01 06:33:43;;;;;;;7.93;1.98;;;;;;;13.65;76.27;68277.00;4984699;28;20117;-82
2023/01/01 06:36:11;;;;;;;6.03;1.80;;;;;;;13.67;76.64;68284.06;4980068;28;20498;-82
2023/01/01 06:38:41;;;;;;;5.80;2.08;;;;;;;13.66;76.25;68283.50;4984765;28;20149;-82
2023/01/01 06:41:09;;;;;;;5.15;1.67;;;;;;;;;;4985509;28;20044;-82
2023/01/01 06:43:35;;;;;;;8.00;2.17;;;;;;;13.65;76.88;68289.81;4983171;28;20038;-82
2023/01/01 06:46:17;;;;;;;9.85;2.25;;;;;;;13.63;77.27;68282.19;4983887;28;20521;-82
2023/01/01 06:48:43;;;;;;;7.68;1.98;;;;;;;13.61;76.96;68277.81;5005372;28;20045;-82
2023/01/01 06:51:12;;;;;;;7.68;2.22;;;;;;;13.62;77.10;68278.94;4985992;28;20046;-83
2023/01/01 06:53:38;;;;;;;9.48;1.80;;;;;;;13.61;77.62;68275.16;4985461;28;20038;-83
2023/01/01 06:56:04;;;;;;;8.93;2.22;;;;;;;13.59;77.64;68278.22;4988701;28;20050;-82
2023/01/01 06:58:30;;;;;;;8.48;1.80;;;;;;;13.56;78.02;68271.56;4992771;28;20486;-82
2023/01/01 07:01:08;;;;;;;5.90;1.98;;;;;;;13.54;79.45;68267.16;4993579;28;20046;-82
2023/01/01 07:03:33;;;;;;;5.22;2.00;;;;;;;13.49;80.02;68267.41;4991149;28;20042;-82
2023/01/01 07:05:59;;;;;;;6.43;1.65;;;;;;;13.45;80.46;68262.28;4987777;28;20517;-82
2023/01/01 07:08:24;;;;;;;7.70;2.33;;;;;;;13.44;79.95;68261.16;4995908;28;20048;-82
2023/01/01 07:10:49;;;;;;;6.80;2.30;;;;;;;13.44;80.01;68261.72;4991807;28;20043;-82
2023/01/01 07:13:15;;;;;;;4.45;1.60;;;;;;;13.41;80.04;68258.31;4989720;28;20054;-82
2023/01/01 07:15:40;;;;;;;6.75;1.83;;;;;;;;;;4991607;28;20498;-81
2023/01/01 07:18:05;;;;;;;5.50;2.15;;;;;;;13.43;81.09;68260.00;4985558;28;20490;-82
2023/01/01 07:20:31;;;;;;;4.32;1.80;;;;;;;13.37;81.56;68250.50;4991114;28;20163;-83
2023/01/01 07:22:56;;;;;;;7.28;2.10;;;;;;;13.30;83.07;68246.38;4978505;28;20065;-83
2023/01/01 07:25:21;;;;;;;6.30;1.75;;;;;;;13.24;83.64;68238.97;4983557;28;20038;-82
2023/01/01 07:27:47;;;;;;;4.43;1.40;;;;;;;;;;4980336;28;20054;-82
2023/01/01 07:30:12;;;;;;;7.40;1.60;;;;;;;12.99;80.82;68209.00;4991027;28;20046;-82
2023/01/01 07:32:37;;;;;;;4.32;1.42;;;;;;;12.94;81.70;68205.41;4989192;28;20305;-83
2023/01/01 07:35:03;;;;;;;5.13;1.35;;;;;;;12.84;82.87;68191.94;4992191;28;20073;-81
2023/01/01 07:37:29;;;;;;;5.68;1.40;;;;;;;12.79;84.10;68189.50;4988121;28;20129;-82
2023/01/01 07:39:54;;;;;;;5.55;1.50;;;;;;;12.70;85.48;68179.25;4992289;28;20038;-83
2023/01/01 07:42:20;;;;;;;5.70;1.30;;;;;;;12.59;87.78;68167.31;4990216;28;20073;-82
2023/01/01 07:44:45;;;;;;;5.03;1.23;;;;;;;;;;4989397;28;20038;-82
2023/01/01 07:47:22;;;;;;;6.73;2.13;;;;;;;12.35;92.26;68140.63;4985431;28;20054;-82
2023/01/01 07:49:47;;;;;;;6.60;2.08;;;;;;;12.29;94.50;68133.81;4991510;28;20368;-82
2023/01/01 07:52:13;;;;;;;5.50;1.48;;;;;;;12.18;96.45;68121.88;4978387;28;20468;-82
2023/01/01 07:54:38;;;;;;;8.30;2.42;;;;;;;12.13;98.72;68116.19;4988142;28;21048;-82
2023/01/01 07:57:03;;;;;;;7.38;2.50;;;;;;;;;;4984753;28;20030;-82
2023/01/01 07:59:29;;;;;;;6.97;2.55;;;;;;;12.00;100.00;68098.16;4988980;28;20049;-82
2023/01/01 08:01:54;;;;;;;7.72;2.00;;;;;;;11.93;100.00;68088.69;4983297;28;20413;-83
2023/01/01 08:04:20;;;;;;;6.97;2.78;;;;;;;11.87;100.00;68086.66;4993130;28;20037;-83
2023/01/01 08:06:45;;;;;;;7.80;2.65;;;;;;;11.83;100.00;68082.66;4980466;28;20035;-83
2023/01/01 08:09:10;;;;;;;8.70;2.72;;;;;;;11.81;100.00;68079.81;4979292;28;20050;-82
2023/01/01 08:11:36;;;;;;;7.00;1.80;;;;;;;11.74;100.00;68072.44;4980855;28;20042;-82
2023/01/01 08:14:01;;;;;;;9.95;2.70;;;;;;;11.72;100.00;68070.16;4985905;28;20737;-82
2023/01/01 08:16:27;;;;;;;5.53;2.25;;;;;;;11.69;100.00;68066.75;4985927;28;20038;-82
2023/01/01 08:18:52;;;;;;;8.38;2.15;;;;;;;11.60;100.00;68057.09;4983359;28;20125;-82
2023/01/01 08:21:17;;;;;;;7.88;2.53;;;;;;;11.58;100.00;68054.81;4987586;28;20034;-82
2023/01/01 08:23:43;;;;;;;6.93;2.65;;;;;;;11.48;100.00;68041.38;4985557;28;20037;-82
2023/01/01 08:26:15;;;;;;;8.38;3.00;;;;;;;11.45;100.00;68034.72;4978904;28;20457;-82
2023/01/01 08:28:40;;;;;;;7.70;2.28;;;;;;;11.39;100.00;68033.81;4984408;28;20038;-82
2023/01/01 08:31:05;;;;;;;9.93;2.60;;;;;;;;;;4979859;28;20089;-82
2023/01/01 08:33:31;;;;;;;8.90;2.10;;;;;;;11.37;100.00;68028.88;4986936;28;20134;-82
2023/01/01 08:35:56;;;;;;;6.35;2.13;;;;;;;11.37;100.00;68031.56;4983755;28;20317;-82
2023/01/01 08:38:21;;;;;;;9.63;2.42;;;;;;;;;;4979221;28;20042;-82
2023/01/01 08:40:47;;;;;;;5.80;2.15;;;;;;;11.32;100.00;68025.88;4976465;28;20110;-82
2023/01/01 08:43:12;;;;;;;10.68;2.72;;;;;;;11.32;100.00;68025.88;4989726;28;20042;-82
2023/01/01 08:45:37;;;;;;;7.40;2.35;;;;;;;11.28;100.00;68021.91;4981296;28;20707;-82
2023/01/01 08:48:03;;;;;;;7.00;2.60;;;;;;;11.23;100.00;68015.66;4985929;28;20110;-83
2023/01/01 08:50:28;;;;;;;7.00;2.97;;;;;;;11.19;100.00;68011.09;4990934;28;20072;-82
2023/01/01 08:52:54;;;;;;;4.72;2.42;;;;;;;11.12;100.00;68000.50;4984026;28;20042;-82
2023/01/01 08:55:19;;;;;;;7.90;3.15;;;;;;;11.09;100.00;67999.75;4992460;28;20660;-82
2023/01/01 08:57:44;;;;;;;9.45;3.03;;;;;;;;;;4980780;28;20050;-82
2023/01/01 09:00:12;;;;;;;7.57;3.50;;;;;;;11.01;100.00;67989.13;4963686;28;20054;-82
2023/01/01 09:02:37;;;;;;;8.38;2.65;;;;;;;10.98;100.00;67993.72;4965212;28;20294;-82
2023/01/01 09:05:03;;;;;;;9.40;3.67;;;;;;;10.99;100.00;67983.63;4966350;28;20055;-83
2023/01/01 09:07:28;;;;;;;8.10;3.20;;;;;;;;;;4965170;28;20043;-82
2023/01/01 09:09:54;;;;;;;7.90;3.60;;;;;;;10.90;100.00;67979.31;4968118;28;20074;-81
2023/01/01 09:12:19;;;;;;;8.63;2.92;;;;;;;;;;4961877;28;20043;-81
2023/01/01 09:14:47;;;;;;;7.95;2.78;;;;;;;10.87;100.00;67975.91;4965840;28;20070;-82
2023/01/01 09:17:13;;;;;;;9.60;2.75;;;;;;;;;;4962093;28;20093;-82
2023/01/01 09:19:38;;;;;;;8.23;3.35;;;;;;;10.89;100.00;67977.63;4966904;28;20133;-82
2023/01/01 09:22:11;;;;;;;7.63;2.70;;;;;;;10.87;100.00;67973.25;4971201;28;20043;-83
2023/01/01 09:24:36;;;;;;;7.55;3.38;;;;;;;10.86;100.00;67974.78;4974957;28;20043;-81
2023/01/01 09:27:02;;;;;;;8.43;3.08;;;;;;;10.84;100.00;67969.84;4973973;28;20050;-82
2023/01/01 09:29:27;;;;;;;5.53;2.20;;;;;;;10.79;100.00;67967.41;4972506;28;20587;-81
2023/01/01 09:31:52;;;;;;;9.43;2.90;;;;;;;10.80;100.00;67967.97;4960921;28;20050;-82
2023/01/01 09:34:18;;;;;;;11.38;3.13;;;;;;;;;;4964422;28;20598;-82
2023/01/01 09:36:47;;;;;;;8.30;2.22;;;;;;;10.74;100.00;67967.06;4967400;28;20047;-81
2023/01/01 09:39:14;;;;;;;9.25;2.50;;;;;;;10.73;100.00;67960.03;4963313;28;20047;-81
2023/01/01 09:41:55;;;;;;;6.80;2.30;;;;;;;;;;4976851;28;20142;-81
2023/01/01 09:44:45;;;;;;;5.75;2.00;;;;;;;10.69;100.00;67960.81;4977284;28;20546;-82
2023/01/01 09:47:24;;;;;;;5.82;1.80;;;;;;;10.71;100.00;67957.78;4961243;28;20066;-81
2023/01/01 09:49:53;;;;;;;8.75;2.58;;;;;;;10.70;100.00;67961.94;4964492;28;20047;-81
2023/01/01 09:52:20;;;;;;;8.32;1.83;;;;;;;10.73;100.00;67957.34;4961764;28;20063;-82
2023/01/01 09:54:56;;;;;;;5.82;1.95;;;;;;;10.73;100.00;67955.28;4965116;28;20035;-82
2023/01/01 09:57:28;;;;;;;8.05;1.90;;;;;;;10.74;100.00;67961.72;4982322;28;20184;-81
2023/01/01 09:59:54;;;;;;;8.93;1.83;;;;;;;;;;4974542;28;20189;-82
2023/01/01 10:02:19;;;;;;;9.85;2.10;;;;;;;;;;4972424;28;20071;-82
2023/01/01 10:04:59;;;;;;;7.60;2.13;;;;;;;10.80;100.00;67973.31;4967801;28;20046;-82
2023/01/01 10:07:41;;;;;;;5.72;1.65;;;;;;;10.79;100.00;67966.84;4981929;28;20357;-82
2023/01/01 10:10:25;;;;;;;9.52;1.60;;;;;;;;;;4970365;28;20046;-82
2023/01/01 10:13:25;;;;;;;7.88;2.38;;;;;;;10.67;100.00;67953.22;4965516;28;20071;-82
2023/01/01 10:15:58;;;;;;;5.30;1.50;;;;;;;10.63;100.00;67948.69;4973415;28;20103;-83
2023/01/01 10:18:28;;;;;;;5.97;1.88;;;;;;;10.59;100.00;67945.28;4965952;28;20526;-82
2023/01/01 10:21:06;;;;;;;12.20;2.30;;;;;;;10.57;100.00;67943.00;4966093;28;20058;-82
2023/01/01 10:23:44;;;;;;;8.40;1.85;;;;;;;10.54;100.00;67944.94;4985102;28;20043;-83
2023/01/01 10:26:20;;;;;;;10.73;3.60;;;;;;;10.54;100.00;67939.59;4985361;28;20125;-83
2023/01/01 10:29:11;;;;;;;10.23;3.10;;;;;;;10.54;100.00;67944.38;4990977;28;20129;-83
2023/01/01 10:31:43;;;;;;;9.20;3.08;;;;;;;;;;4996226;28;20038;-83
2023/01/01 10:34:35;;;;;;;8.60;2.85;;;;;;;10.52;100.00;67937.31;4986699;28;20133;-83
2023/01/01 10:37:01;;;;;;;5.57;2.88;;;;;;;10.54;100.00;67936.94;4979242;28;20074;-83
2023/01/01 10:39:27;;;;;;;9.55;3.00;;;;;;;;;;4984381;28;20050;-82
2023/01/01 10:41:52;;;;;;;12.30;4.00;;;;;;;10.55;100.00;67938.06;4984287;28;20042;-83
2023/01/01 10:44:25;;;;;;;14.98;3.03;;;;;;;;;;4983960;28;20387;-84
2023/01/01 10:46:56;;;;;;;7.40;2.97;;;;;;;10.56;100.00;67941.88;4982780;28;20588;-84
2023/01/01 10:49:22;;;;;;;8.80;3.15;;;;;;;10.55;100.00;67937.50;4986470;28;20109;-84
2023/01/01 10:51:50;;;;;;;6.75;3.58;;;;;;;10.56;100.00;67941.88;4981764;28;20046;-84
2023/01/01 10:54:38;;;;;;;8.10;3.60;;;;;;;10.54;100.00;67939.03;4987068;28;20054;-83
2023/01/01 10:57:37;;;;;;;9.85;3.75;;;;;;;10.49;100.00;67933.94;4985167;28;20483;-82
2023/01/01 11:00:23;;;;;;;10.70;3.60;;;;;;;10.44;100.00;67933.56;4982495;28;20133;-82
2023/01/01 11:03:07;;;;;;;8.07;3.85;;;;;;;;;;4989276;28;20042;-83
2023/01/01 11:05:33;;;;;;;11.10;5.10;;;;;;;;;;4995430;28;20058;-83
2023/01/01 11:07:59;;;;;;;11.38;4.43;;;;;;;;;;4972221;28;20074;-83
2023/01/01 11:10:24;;;;;;;11.02;4.22;;;;;;;;;;4961722;28;20070;-83
2023/01/01 11:12:52;;;;;;;7.47;4.47;;;;;;;10.41;100.00;67924.84;4970125;28;20492;-82
2023/01/01 11:15:38;;;;;;;12.40;5.57;;;;;;;10.43;100.00;67926.56;4963177;28;20031;-82
2023/01/01 11:18:19;;;;;;;7.15;4.47;;;;;;;10.42;100.00;67931.31;4970823;28;20043;-82
2023/01/01 11:20:57;;;;;;;13.35;4.95;;;;;;;10.46;100.00;67929.97;4966270;28;20094;-82
2023/01/01 11:23:34;;;;;;;11.85;4.90;;;;;;;10.50;100.00;67934.50;4969542;28;20503;-82
2023/01/01 11:26:25;;;;;;;9.90;4.97;;;;;;;10.54;100.00;67939.59;4955426;28;20072;-82
2023/01/01 11:29:16;;;;;;;13.85;7.63;;;;;;;10.60;100.00;67945.84;4963547;28;20107;-82
2023/01/01 11:31:43;;;;;;;11.98;5.53;;;;;;;;;;4975021;28;20527;-82
2023/01/01 11:34:39;;;;;;;13.43;8.85;;;;;;;10.63;100.00;67949.25;4968878;28;20046;-82
2023/01/01 11:37:10;;;;;;;9.18;5.30;;;;;;;10.59;100.00;67945.28;4962335;28;20070;-83
2023/01/01 11:39:36;;;;;;;11.73;5.72;;;;;;;;;;4975938;28;20055;-83
2023/01/01 11:42:03;;;;;;;12.82;5.60;;;;;;;10.56;100.00;67941.88;4967473;28;20051;-83
2023/01/01 11:44:36;;;;;;;9.60;6.20;;;;;;;10.60;100.00;67943.19;4958702;28;20106;-83
2023/01/01 11:47:05;;;;;;;9.32;6.15;;;;;;;10.60;100.00;67946.41;4964409;28;20527;-82
2023/01/01 11:49:31;;;;;;;11.70;7.00;;;;;;;10.62;100.00;67945.47;4985007;28;20499;-83
2023/01/01 11:51:57;;;;;;;11.68;7.25;;;;;;;;;;4985119;28;20105;-83
2023/01/01 11:54:37;;;;;;;11.63;7.13;;;;;;;10.65;100.00;67951.53;4987060;28;20042;-83
2023/01/01 11:57:24;;;;;;;12.95;8.10;;;;;;;10.71;100.00;67957.78;4978081;28;20109;-83
2023/01/01 11:59:57;;;;;;;15.55;9.18;;;;;;;10.74;100.00;67961.72;4984835;28;20074;-84
2023/01/01 12:02:35;;;;;;;13.65;8.00;;;;;;;10.81;100.00;67969.09;4983480;28;20425;-83